Dixon AP, Dixon, WY, WY

11:46 PM MDT on October 17, 2017 (GMT -0600)
Dixon AP, Dixon, WY

Weather History for KDWX - February, 2014

Change the Weather History Date:

Friday, February 7, 2014

  Actual Average (KCAG) Record (KCAG)
Temperature  
Mean Temperature 28 °F -  
Max Temperature 34 °F 30 °F 57 °F (2015)
Min Temperature 22 °F 5 °F -20 °F (2003)
Degree Days  
Heating Degree Days 37    
Moisture  
Dew Point 21 °F    
Average Humidity 76    
Maximum Humidity 86    
Minimum Humidity 60    
Precipitation  
Precipitation 0.00 in - - ()
Sea Level Pressure  
Sea Level Pressure 29.81 in    
Wind  
Wind Speed 12 mph (SW)    
Max Wind Speed 21 mph    
Max Gust Speed 28 mph    
Visibility 10 miles    
Events Snow    
Averages and records for this station are not official NWS values.
T = Trace of Precipitation, MM = Missing Value Source: NWS Daily Summary

Daily Weather History Graph

Daily Weather History Graph

Search for Another Location

Airport or City:

Trip Planner

Search our weather history database for the weather conditions in past years. The results will help you decide how hot, cold, wet, or windy it might be!

Date:

Astronomy

Feb. 07, 2014 Rise Set
Actual Time 7:14 AM MST 5:34 PM MST
Civil Twilight 6:45 AM MST 6:03 PM MST
Nautical Twilight 6:12 AM MST 6:35 PM MST
Astronomical Twilight 5:40 AM MST 7:07 PM MST
Moon 11:47 AM MST (2/7) 1:33 AM MST (2/7)
Length of Visible Light 11h 17m
Length of Day
10h 20m
First Quarter, 60% of the Moon is Illuminated
Feb 7
First Quarter
Feb 14
Full
Feb 22
Last Quarter
Mar 1
New
Mar 8
First Quarter

Hourly Weather History & Observations

Time (MST) Temp. Windchill Dew Point Humidity Pressure Visibility Wind Dir Wind Speed Gust Speed Precip Events Conditions
12:15 AM 24.4 °F 13.0 °F 19.0 °F 80% 29.81 in 10.0 mi SSW 12.7 mph 17.3 mph N/A   Overcast
12:35 AM 24.4 °F 13.5 °F 19.4 °F 81% 29.81 in 10.0 mi SSW 11.5 mph - N/A Snow Light Snow
12:55 AM 24.3 °F 13.9 °F 19.4 °F 82% 29.81 in 10.0 mi SSW 10.4 mph - N/A Snow Light Snow
1:15 AM 24.4 °F 14.9 °F 19.2 °F 81% 29.81 in 10.0 mi SSW 9.2 mph - N/A   Overcast
1:35 AM 24.3 °F 13.3 °F 19.0 °F 80% 29.79 in 10.0 mi SSW 11.5 mph - N/A   Overcast
1:55 AM 23.9 °F 11.7 °F 18.9 °F 81% 29.79 in 10.0 mi SSW 13.8 mph - N/A   Overcast
2:15 AM 23.9 °F 12.9 °F 19.4 °F 83% 29.79 in 10.0 mi SSW 11.5 mph - N/A   Overcast
2:35 AM 24.3 °F 13.9 °F 19.8 °F 83% 29.79 in 10.0 mi SSW 10.4 mph - N/A   Overcast
2:55 AM 23.9 °F 14.2 °F 19.4 °F 83% 29.79 in 10.0 mi SW 9.2 mph - N/A   Overcast
3:15 AM 23.9 °F 14.2 °F 19.8 °F 84% 29.79 in 10.0 mi SSW 9.2 mph - N/A   Overcast
3:35 AM 24.4 °F 18.6 °F 19.8 °F 82% 29.79 in 10.0 mi SW 4.6 mph 18.4 mph N/A   Mostly Cloudy
3:55 AM 24.8 °F 16.1 °F 20.3 °F 83% 29.79 in 10.0 mi SW 8.1 mph - N/A   Mostly Cloudy
4:15 AM 24.1 °F 17.0 °F 20.3 °F 85% 29.79 in 10.0 mi WSW 5.8 mph - N/A   Overcast
4:35 AM 23.2 °F 15.0 °F 19.4 °F 85% 29.79 in 10.0 mi SW 6.9 mph - N/A   Overcast
4:55 AM 22.6 °F 13.4 °F 18.7 °F 85% 29.79 in 10.0 mi SW 8.1 mph - N/A   Mostly Cloudy
5:15 AM 22.8 °F 14.5 °F 18.7 °F 84% 29.79 in 10.0 mi SW 6.9 mph - N/A   Mostly Cloudy
5:35 AM 23.9 °F 13.5 °F 20.3 °F 86% 29.78 in 10.0 mi SSW 10.4 mph - N/A Snow Light Snow
5:55 AM 25.5 °F 13.3 °F 21.9 °F 86% 29.78 in 10.0 mi SSW 15.0 mph 21.9 mph N/A   Overcast
6:15 AM 26.1 °F 16.8 °F 21.9 °F 84% 29.78 in 10.0 mi SW 9.2 mph - N/A   Overcast
6:35 AM 26.4 °F 15.5 °F 21.7 °F 82% 29.79 in 10.0 mi SW 12.7 mph 16.1 mph N/A   Overcast
6:55 AM 25.7 °F 15.7 °F 21.7 °F 85% 29.79 in 10.0 mi SW 10.4 mph 16.1 mph N/A   Overcast
7:15 AM 25.7 °F 15.1 °F 21.7 °F 85% 29.79 in 10.0 mi SW 11.5 mph - N/A   Overcast
7:35 AM 26.2 °F 14.7 °F 22.1 °F 84% 29.79 in 10.0 mi SSW 13.8 mph - N/A   Overcast
7:55 AM 26.4 °F 16.6 °F 21.9 °F 83% 29.81 in 10.0 mi SW 10.4 mph - N/A   Overcast
8:15 AM 27.0 °F 17.3 °F 22.1 °F 82% 29.81 in 10.0 mi SW 10.4 mph - N/A   Overcast
8:35 AM 27.1 °F 15.9 °F 22.1 °F 81% 29.81 in 10.0 mi SW 13.8 mph 17.3 mph N/A   Overcast
8:55 AM 27.5 °F 17.4 °F 22.3 °F 81% 29.82 in 10.0 mi SW 11.5 mph - N/A   Overcast
9:15 AM 27.7 °F 17.1 °F 22.6 °F 81% 29.81 in 10.0 mi SW 12.7 mph 17.3 mph N/A   Overcast
9:35 AM 28.4 °F 20.4 °F 22.5 °F 78% 29.81 in 10.0 mi SW 8.1 mph - N/A   Overcast
9:55 AM 30.2 °F 24.3 °F 22.6 °F 73% 29.81 in 10.0 mi WSW 5.8 mph - N/A   Overcast
10:15 AM 30.4 °F 20.5 °F 22.8 °F 73% 29.81 in 10.0 mi SW 12.7 mph 19.6 mph N/A   Overcast
10:35 AM 30.0 °F 18.3 °F 22.8 °F 75% 29.81 in 10.0 mi SSW 17.3 mph 23.0 mph N/A   Overcast
10:55 AM 30.2 °F 18.5 °F 23.0 °F 75% 29.81 in 10.0 mi SSW 17.3 mph - N/A   Overcast
11:15 AM 30.0 °F 19.5 °F 24.4 °F 80% 29.81 in 10.0 mi SW 13.8 mph 25.3 mph N/A   Overcast
11:35 AM 29.7 °F 19.1 °F 25.7 °F 85% 29.81 in 7.0 mi SW 13.8 mph 21.9 mph N/A Snow Light Snow
11:55 AM 31.6 °F 21.2 °F 25.7 °F 79% 29.81 in 10.0 mi SSW 15.0 mph - N/A   Overcast
12:15 PM 30.9 °F 21.2 °F 24.8 °F 78% 29.81 in 10.0 mi SW 12.7 mph - N/A   Overcast
12:35 PM 32.0 °F 20.5 °F 24.3 °F 73% 29.80 in 10.0 mi WSW 18.4 mph 25.3 mph N/A   Overcast
12:55 PM 32.2 °F 20.4 °F 23.2 °F 69% 29.79 in 10.0 mi WSW 19.6 mph 27.6 mph N/A   Overcast
1:15 PM 32.4 °F 20.9 °F 23.0 °F 68% 29.79 in 10.0 mi WSW 18.4 mph 26.5 mph N/A   Overcast
1:35 PM 32.5 °F 20.8 °F 23.2 °F 68% 29.79 in 10.0 mi WSW 19.6 mph 25.3 mph N/A   Overcast
1:55 PM 32.9 °F 21.6 °F 23.2 °F 67% 29.79 in 10.0 mi WSW 18.4 mph 24.2 mph N/A   Overcast
2:15 PM 34.9 °F 23.9 °F 22.8 °F 61% 29.78 in 10.0 mi WSW 19.6 mph 27.6 mph N/A   Overcast
2:35 PM 33.4 °F 21.7 °F 21.9 °F 63% 29.79 in 10.0 mi WSW 20.7 mph 26.5 mph N/A   Scattered Clouds
2:55 PM 32.9 °F 22.0 °F 21.7 °F 64% 29.79 in 10.0 mi WSW 17.3 mph 27.6 mph N/A   Mostly Cloudy
3:15 PM 34.5 °F 23.4 °F 21.9 °F 60% 29.78 in 10.0 mi WSW 19.6 mph 24.2 mph N/A   Mostly Cloudy
3:35 PM 33.6 °F 23.3 °F 22.1 °F 63% 29.79 in 10.0 mi SW 16.1 mph 25.3 mph N/A   Scattered Clouds
3:55 PM 32.5 °F 21.9 °F 23.2 °F 68% 29.79 in 10.0 mi SW 16.1 mph 21.9 mph N/A   Overcast
4:15 PM 32.0 °F 20.8 °F 24.4 °F 74% 29.79 in 10.0 mi SSW 17.3 mph 23.0 mph N/A   Overcast
4:35 PM 31.3 °F 22.1 °F 23.0 °F 71% 29.79 in 10.0 mi SW 11.5 mph - N/A   Scattered Clouds
4:55 PM 31.8 °F 22.3 °F 21.0 °F 64% 29.79 in 10.0 mi SW 12.7 mph 20.7 mph N/A   Scattered Clouds
5:15 PM 30.6 °F 20.2 °F 21.4 °F 69% 29.81 in 10.0 mi SW 13.8 mph 18.4 mph N/A   Mostly Cloudy
5:35 PM 29.3 °F 20.2 °F 21.9 °F 74% 29.82 in 10.0 mi SW 10.4 mph - N/A   Overcast
5:55 PM 28.6 °F 20.7 °F 21.4 °F 74% 29.83 in 10.0 mi SW 8.1 mph - N/A   Overcast
6:15 PM 28.4 °F 23.3 °F 21.2 °F 74% 29.84 in 10.0 mi SW 4.6 mph - N/A   Overcast
6:35 PM 28.8 °F 22.6 °F 21.0 °F 73% 29.84 in 10.0 mi SW 5.8 mph - N/A   Overcast
6:55 PM 28.9 °F 19.8 °F 21.0 °F 72% 29.85 in 10.0 mi SW 10.4 mph - N/A   Overcast
7:15 PM 28.4 °F 19.1 °F 21.0 °F 74% 29.86 in 10.0 mi SW 10.4 mph - N/A   Overcast
7:35 PM 27.9 °F 19.1 °F 20.5 °F 74% 29.86 in 10.0 mi SW 9.2 mph - N/A   Overcast
7:55 PM 27.5 °F 18.6 °F 20.1 °F 74% 29.86 in 10.0 mi SW 9.2 mph - N/A   Overcast
8:15 PM 27.1 °F 17.5 °F 19.6 °F 73% 29.86 in 10.0 mi SW 10.4 mph 16.1 mph N/A   Overcast
8:35 PM 27.7 °F 18.2 °F 19.9 °F 73% 29.86 in 10.0 mi WSW 10.4 mph - N/A   Overcast
8:55 PM 25.7 °F 19.0 °F 19.2 °F 76% 29.87 in 10.0 mi West 5.8 mph - N/A   Overcast
9:15 PM 27.3 °F 19.9 °F 19.4 °F 72% 29.87 in 10.0 mi SW 6.9 mph - N/A   Overcast
9:35 PM 28.2 °F 18.9 °F 19.4 °F 70% 29.87 in 10.0 mi SW 10.4 mph - N/A   Overcast
9:55 PM 28.4 °F 18.5 °F 19.4 °F 69% 29.87 in 10.0 mi SSW 11.5 mph 17.3 mph N/A   Overcast
10:15 PM 28.0 °F 18.1 °F 19.4 °F 70% 29.87 in 10.0 mi SW 11.5 mph 19.6 mph N/A   Overcast
10:35 PM 26.8 °F 16.5 °F 18.9 °F 72% 29.88 in 10.0 mi SW 11.5 mph - N/A   Overcast
10:55 PM 26.4 °F 17.3 °F 18.5 °F 72% 29.88 in 10.0 mi WSW 9.2 mph - N/A   Mostly Cloudy
11:15 PM 25.7 °F 18.0 °F 18.1 °F 73% 29.88 in 10.0 mi SW 6.9 mph - N/A   Scattered Clouds
11:35 PM 25.5 °F 17.8 °F 17.8 °F 72% 29.88 in 10.0 mi West 6.9 mph - N/A   Clear
11:55 PM 27.3 °F 17.7 °F 18.5 °F 69% 29.88 in 10.0 mi SW 10.4 mph 18.4 mph N/A   Clear